Time;durP1;ratioP1;P1;durP2;ratioP2;P2;SDS_P1;SDS_P2;PMS_P1;PMS_P2;Temp;Humidity;BMP_temperature;BMP_pressure;BME280_temperature;BME280_humidity;BME280_pressure;Samples;Min_cycle;Max_cycle;Signal;HPM_P1;HPM_P2
2021/10/30 00:01:27;;;;;;;;;9.00;6.25;;;;;19.99;45.90;99916.03;4995330;28;50893;-43
2021/10/30 00:03:52;;;;;;;;;8.50;7.50;;;;;20.00;45.58;99908.63;4995118;28;50971;-45
2021/10/30 00:06:19;;;;;;;;;6.75;6.75;;;;;19.99;45.68;99902.28;4995224;28;50937;-43
2021/10/30 00:08:44;;;;;;;;;9.50;7.00;;;;;19.99;45.65;99905.03;4994973;28;52144;-47
2021/10/30 00:11:09;;;;;;;;;9.00;8.00;;;;;19.99;45.50;99895.97;4995179;28;51177;-49
2021/10/30 00:13:35;;;;;;;;;9.00;6.00;;;;;20.00;45.50;99889.38;4995165;28;51023;-48
2021/10/30 00:16:01;;;;;;;;;6.25;6.25;;;;;19.99;45.82;99888.53;4996355;28;51168;-49
2021/10/30 00:18:27;;;;;;;;;5.75;5.75;;;;;19.99;45.45;99893.22;4998002;28;52625;-46
2021/10/30 00:20:53;;;;;;;;;6.00;6.00;;;;;19.98;45.59;99891.53;4998761;28;51091;-44
2021/10/30 00:23:18;;;;;;;;;7.50;4.50;;;;;19.98;45.81;99875.88;4998680;28;51131;-47
2021/10/30 00:25:43;;;;;;;;;7.25;7.00;;;;;19.98;45.81;99875.88;4998796;28;51209;-48
2021/10/30 00:28:09;;;;;;;;;7.50;6.25;;;;;19.98;45.81;99880.53;5017344;28;51148;-49
2021/10/30 00:30:34;;;;;;;;;6.50;6.00;;;;;19.98;45.60;99875.06;5018342;28;51238;-50
2021/10/30 00:32:59;;;;;;;;;7.25;6.25;;;;;19.98;45.90;99864.06;5018563;28;51091;-45
2021/10/30 00:35:25;;;;;;;;;9.25;6.00;;;;;19.97;45.99;99871.47;5018557;28;51248;-43
2021/10/30 00:37:50;;;;;;;;;6.75;6.25;;;;;19.97;45.51;99865.97;5017838;28;51783;-49
2021/10/30 00:40:15;;;;;;;;;9.50;8.00;;;;;19.97;45.74;99863.22;5000487;28;51266;-44
2021/10/30 00:42:41;;;;;;;;;5.75;5.75;;;;;19.97;45.63;99859.63;5018484;28;50942;-45
2021/10/30 00:45:08;;;;;;;;;8.00;7.00;;;;;19.97;45.85;99860.47;5018462;28;50983;-43
2021/10/30 00:47:33;;;;;;;;;6.00;5.00;;;;;19.98;45.58;99856.63;5017982;28;52314;-47
2021/10/30 00:50:00;;;;;;;;;7.25;7.25;;;;;19.97;45.93;99849.47;5018119;28;51137;-44
2021/10/30 00:52:28;;;;;;;;;6.50;6.50;;;;;19.96;45.98;99842.31;5017899;28;51157;-46
2021/10/30 00:54:57;;;;;;;;;9.25;6.25;;;;;19.97;45.89;99838.47;5018041;28;51215;-44
2021/10/30 00:57:25;;;;;;;;;7.50;7.25;;;;;19.97;45.84;99849.47;5017906;28;50999;-44
2021/10/30 00:59:51;;;;;;;;;6.00;6.00;;;;;19.97;46.01;99843.97;5017838;28;51361;-46
2021/10/30 01:02:16;;;;;;;;;8.25;6.25;;;;;19.97;45.94;99834.91;5017988;28;51058;-46
2021/10/30 01:04:42;;;;;;;;;6.75;6.75;;;;;19.96;45.94;99839.56;5017987;28;51011;-44
2021/10/30 01:07:07;;;;;;;;;6.00;5.00;;;;;19.96;45.82;99831.31;5017631;28;51490;-45
2021/10/30 01:09:33;;;;;;;;;5.75;5.75;;;;;19.97;45.70;99826.66;5017979;28;51097;-46
2021/10/30 01:11:59;;;;;;;;;9.25;6.00;;;;;19.97;46.01;99823.91;5018030;28;51233;-44
2021/10/30 01:14:25;;;;;;;;;5.50;5.50;;;;;19.96;45.63;99820.31;5018091;28;51157;-45
2021/10/30 01:17:02;;;;;;;;;6.00;5.00;;;;;19.96;46.07;99817.56;5017623;28;51029;-44
2021/10/30 01:19:29;;;;;;;;;8.00;6.50;;;;;19.96;45.77;99814.00;5017815;28;51382;-46
2021/10/30 01:21:55;;;;;;;;;7.00;5.75;;;;;19.95;45.99;99799.41;5017713;28;51165;-47
2021/10/30 01:24:21;;;;;;;;;7.50;7.50;;;;;19.96;45.93;99814.00;5017884;28;51086;-43
2021/10/30 01:26:46;;;;;;;;;8.50;7.50;;;;;19.96;45.71;99803.00;5008926;28;51928;-44
2021/10/30 01:29:12;;;;;;;;;6.00;6.00;;;;;19.95;45.64;99795.84;4997969;28;51171;-46
2021/10/30 01:31:37;;;;;;;;;9.50;7.00;;;;;19.95;45.75;99795.84;4997964;28;51086;-44
2021/10/30 01:34:05;;;;;;;;;5.75;5.75;;;;;19.96;46.15;99797.50;4998013;28;51070;-44
2021/10/30 01:36:31;;;;;;;;;7.75;6.75;;;;;19.96;45.96;99792.84;4997314;28;51037;-47
2021/10/30 01:38:57;;;;;;;;;6.25;5.50;;;;;19.96;45.78;99787.34;4997522;28;51208;-47
2021/10/30 01:41:24;;;;;;;;;7.75;6.00;;;;;19.96;45.78;99781.00;4997615;28;50989;-49
2021/10/30 01:43:50;;;;;;;;;5.75;5.75;;;;;19.95;46.02;99787.59;4997723;28;51367;-47
2021/10/30 01:46:17;;;;;;;;;7.25;5.75;;;;;19.96;45.93;99778.25;4997334;28;52007;-44
2021/10/30 01:48:42;;;;;;;;;6.50;5.75;;;;;19.96;45.98;99781.84;4997422;28;51343;-43
2021/10/30 01:51:08;;;;;;;;;7.25;5.75;;;;;19.96;45.74;99781.00;4979434;28;51254;-49
2021/10/30 01:53:34;;;;;;;;;6.75;5.00;;;;;19.96;45.69;99775.50;4997481;28;50999;-49
2021/10/30 01:56:00;;;;;;;;;4.75;4.75;;;;;19.95;45.70;99763.69;4997271;28;51143;-48
2021/10/30 01:58:26;;;;;;;;;6.25;5.75;;;;;19.95;46.24;99769.19;4997351;28;51194;-47
2021/10/30 02:00:53;;;;;;;;;5.25;4.00;;;;;19.95;46.02;99754.59;4979680;28;51077;-47
2021/10/30 02:03:20;;;;;;;;;5.00;5.00;;;;;19.94;45.72;99753.78;4997213;28;50988;-48
2021/10/30 02:05:45;;;;;;;;;6.25;5.50;;;;;19.95;46.08;99758.19;4996992;28;52762;-44
2021/10/30 02:08:11;;;;;;;;;6.25;5.50;;;;;19.94;45.64;99740.03;4996874;28;51016;-48
2021/10/30 02:10:36;;;;;;;;;5.75;5.75;;;;;19.94;46.00;99740.03;4997309;28;51059;-48
2021/10/30 02:13:02;;;;;;;;;5.25;5.25;;;;;19.94;46.06;99740.03;4997250;28;51416;-47
2021/10/30 02:15:27;;;;;;;;;5.00;5.00;;;;;19.95;46.25;99719.72;4996672;28;51134;-47
2021/10/30 02:17:52;;;;;;;;;5.00;5.00;;;;;19.95;46.14;99719.72;4979041;28;51103;-47
2021/10/30 02:20:19;;;;;;;;;5.00;4.00;;;;;19.95;45.84;99711.47;4997059;28;51155;-49
2021/10/30 02:22:46;;;;;;;;;6.50;6.00;;;;;19.95;45.88;99703.22;4996998;28;50904;-47
2021/10/30 02:25:11;;;;;;;;;4.25;3.00;;;;;19.95;46.19;99694.97;4996772;28;51436;-46
2021/10/30 02:27:37;;;;;;;;;5.25;5.25;;;;;19.95;46.02;99699.63;5011294;28;51225;-47
2021/10/30 02:30:04;;;;;;;;;7.25;4.50;;;;;19.94;45.74;99696.06;4998723;28;51000;-47
2021/10/30 02:32:29;;;;;;;;;4.00;4.00;;;;;19.94;45.79;99697.97;5016658;28;51408;-45
2021/10/30 02:34:55;;;;;;;;;5.75;4.75;;;;;19.94;46.17;99695.22;5016686;28;51688;-45
2021/10/30 02:37:20;;;;;;;;;7.25;5.25;;;;;19.95;45.71;99688.63;5016328;28;51108;-45
2021/10/30 02:39:45;;;;;;;;;3.00;3.00;;;;;19.93;45.72;99677.91;5015572;28;51068;-46
2021/10/30 02:42:11;;;;;;;;;4.50;4.50;;;;;19.93;45.97;99680.66;5016847;28;51157;-47
2021/10/30 02:44:36;;;;;;;;;6.25;4.50;;;;;19.93;46.19;99675.16;5016051;28;51128;-49
2021/10/30 02:47:03;;;;;;;;;4.00;4.00;;;;;19.93;45.86;99666.91;5016429;28;51114;-47
2021/10/30 02:49:29;;;;;;;;;3.00;3.00;;;;;19.93;46.18;99668.81;5016192;28;51108;-47
2021/10/30 02:51:54;;;;;;;;;3.50;3.50;;;;;19.93;46.15;99672.41;5016196;28;51281;-45
2021/10/30 02:54:20;;;;;;;;;5.25;4.25;;;;;19.94;46.03;99668.56;5015803;28;52035;-49
2021/10/30 02:56:45;;;;;;;;;4.25;4.00;;;;;19.93;46.13;99658.66;5016194;28;50968;-45
2021/10/30 02:59:11;;;;;;;;;3.75;2.75;;;;;19.93;46.15;99658.66;5016226;28;51019;-46
2021/10/30 03:01:36;;;;;;;;;5.75;3.75;;;;;19.94;45.88;99654.81;5016210;28;50897;-50
2021/10/30 03:04:01;;;;;;;;;5.25;4.00;;;;;19.93;46.20;99644.91;4997976;28;50995;-46
2021/10/30 03:06:27;;;;;;;;;5.00;5.00;;;;;19.93;46.11;99636.66;5015770;28;50994;-50
2021/10/30 03:08:53;;;;;;;;;4.50;4.50;;;;;19.93;46.13;99633.09;5015754;28;51512;-47
2021/10/30 03:11:18;;;;;;;;;4.00;4.00;;;;;19.93;46.02;99628.41;5016162;28;51364;-46
2021/10/30 03:13:47;;;;;;;;;5.00;5.00;;;;;19.92;45.91;99610.28;5015654;28;50986;-47
2021/10/30 03:16:13;;;;;;;;;4.25;4.25;;;;;19.92;46.30;99604.78;5015994;28;51286;-47
2021/10/30 03:18:38;;;;;;;;;4.75;4.00;;;;;19.92;46.33;99595.69;5015797;28;51035;-44
2021/10/30 03:21:04;;;;;;;;;7.25;5.00;;;;;19.91;45.95;99586.63;5016117;28;51036;-49
2021/10/30 03:23:30;;;;;;;;;5.00;3.25;;;;;19.92;46.12;99576.47;5015589;28;51112;-47
2021/10/30 03:25:55;;;;;;;;;5.75;4.75;;;;;19.92;46.09;99579.19;5014820;28;51043;-49
2021/10/30 03:28:21;;;;;;;;;4.00;4.00;;;;;19.92;46.19;99576.47;4995966;28;51202;-47
2021/10/30 03:30:46;;;;;;;;;3.25;3.25;;;;;19.92;45.96;99571.78;4995855;28;50979;-44
2021/10/30 03:33:12;;;;;;;;;6.00;5.00;;;;;19.92;46.17;99570.97;4995701;28;50904;-43
2021/10/30 03:35:38;;;;;;;;;3.50;3.50;;;;;19.92;46.28;99566.28;4995939;28;51078;-47
2021/10/30 03:38:03;;;;;;;;;5.00;5.00;;;;;19.91;46.23;99561.88;4995538;28;51069;-47
2021/10/30 03:40:29;;;;;;;;;5.00;4.00;;;;;19.92;45.94;99557.22;4995807;28;51218;-47
2021/10/30 03:42:54;;;;;;;;;3.50;3.50;;;;;19.93;45.86;99565.22;4995609;28;51010;-44
2021/10/30 03:45:20;;;;;;;;;4.25;4.00;;;;;19.92;46.48;99552.56;4995774;28;51181;-47
2021/10/30 03:47:45;;;;;;;;;4.25;3.75;;;;;19.92;46.22;99543.47;4994038;28;51200;-48
2021/10/30 03:50:10;;;;;;;;;4.00;4.00;;;;;19.92;45.96;99547.06;4995825;28;51258;-47
2021/10/30 03:52:36;;;;;;;;;5.25;4.00;;;;;19.91;46.01;99545.41;4995105;28;52105;-45
2021/10/30 03:55:03;;;;;;;;;4.75;2.75;;;;;19.91;46.35;99548.13;4977705;28;51076;-47
2021/10/30 03:57:28;;;;;;;;;4.50;4.00;;;;;19.92;46.09;99543.47;4995711;28;51134;-48
2021/10/30 03:59:54;;;;;;;;;4.00;4.00;;;;;19.92;46.03;99549.81;4995729;28;51008;-50
2021/10/30 04:02:19;;;;;;;;;4.25;4.25;;;;;19.92;45.97;99554.47;4977710;28;52111;-49
2021/10/30 04:04:45;;;;;;;;;4.00;3.75;;;;;19.92;46.24;99549.81;4995475;28;51025;-47
2021/10/30 04:07:10;;;;;;;;;4.00;3.25;;;;;19.92;46.32;99546.22;4977588;28;51290;-44
2021/10/30 04:09:36;;;;;;;;;4.25;3.25;;;;;19.91;46.26;99545.41;4995749;28;51152;-49
2021/10/30 04:12:01;;;;;;;;;4.25;4.25;;;;;19.92;46.41;99548.97;4995103;28;50979;-46
2021/10/30 04:14:26;;;;;;;;;4.00;4.00;;;;;19.91;46.21;99541.81;4995099;28;50940;-45
2021/10/30 04:16:52;;;;;;;;;3.25;3.00;;;;;19.90;46.02;99538.19;4995477;28;51080;-45
2021/10/30 04:19:17;;;;;;;;;4.25;4.25;;;;;19.91;46.05;99542.66;4995519;28;51316;-44
2021/10/30 04:21:43;;;;;;;;;4.50;4.25;;;;;19.90;46.04;99540.94;4994854;28;50978;-48
2021/10/30 04:24:09;;;;;;;;;3.25;3.25;;;;;19.91;45.99;99541.81;4995258;28;50968;-44
2021/10/30 04:26:34;;;;;;;;;4.00;4.00;;;;;19.90;46.25;99540.94;5001333;28;50963;-46
2021/10/30 04:29:01;;;;;;;;;4.00;3.75;;;;;19.90;45.93;99546.44;5015088;28;51156;-46
2021/10/30 04:31:28;;;;;;;;;3.50;3.50;;;;;19.90;45.86;99549.19;5014681;28;51099;-45
2021/10/30 04:33:59;;;;;;;;;3.00;3.00;;;;;19.92;46.08;99551.72;5014804;28;51950;-45
2021/10/30 04:36:26;;;;;;;;;4.25;4.25;;;;;19.91;46.10;99550.88;5014541;28;51055;-43
2021/10/30 04:38:52;;;;;;;;;4.00;4.00;;;;;19.91;46.35;99558.31;5015015;28;51112;-47
2021/10/30 04:41:18;;;;;;;;;4.25;4.00;;;;;19.90;46.03;99551.94;5014789;28;51199;-48
2021/10/30 04:43:44;;;;;;;;;3.75;2.75;;;;;19.89;46.15;99542.88;5014683;28;51371;-45
2021/10/30 04:46:10;;;;;;;;;4.75;4.75;;;;;19.90;46.41;99540.94;4997163;28;51093;-45
2021/10/30 04:48:36;;;;;;;;;3.50;2.75;;;;;19.91;46.39;99545.41;5014820;28;50958;-46
2021/10/30 04:51:02;;;;;;;;;4.75;4.75;;;;;19.89;46.35;99545.63;5014008;28;51732;-46
2021/10/30 04:53:27;;;;;;;;;4.00;4.00;;;;;19.90;46.13;99538.19;5014131;28;51019;-45
2021/10/30 04:55:53;;;;;;;;;6.75;4.50;;;;;19.89;46.46;99540.13;5014814;28;51300;-46
2021/10/30 04:58:18;;;;;;;;;3.00;3.00;;;;;19.89;46.17;99529.13;5014730;28;51011;-47
2021/10/30 05:00:44;;;;;;;;;2.75;2.75;;;;;19.89;46.36;99536.53;5014372;28;51999;-44
2021/10/30 05:03:09;;;;;;;;;4.25;3.25;;;;;19.90;46.38;99532.72;5016729;28;51103;-44
2021/10/30 05:05:35;;;;;;;;;2.50;2.50;;;;;19.89;46.58;99522.78;5018410;28;51319;-48
2021/10/30 05:08:00;;;;;;;;;3.25;3.25;;;;;19.89;46.29;99517.31;5017973;28;51284;-47
2021/10/30 05:10:25;;;;;;;;;4.00;4.00;;;;;19.89;46.42;99515.38;5017646;28;51004;-47
2021/10/30 05:12:51;;;;;;;;;1.75;1.75;;;;;19.88;46.27;99516.47;5018116;28;51034;-47
2021/10/30 05:15:16;;;;;;;;;5.75;4.00;;;;;19.89;46.08;99514.56;4999799;28;51080;-44
2021/10/30 05:17:41;;;;;;;;;3.25;3.00;;;;;19.89;46.37;99522.78;5018027;28;51392;-50
2021/10/30 05:20:07;;;;;;;;;2.75;2.75;;;;;19.88;46.60;99512.88;5017902;28;51235;-46
2021/10/30 05:22:33;;;;;;;;;3.25;3.25;;;;;19.87;46.44;99514.81;5017530;28;51316;-47
2021/10/30 05:24:59;;;;;;;;;3.00;3.00;;;;;19.88;46.14;99505.47;5017761;28;51245;-48
2021/10/30 05:27:25;;;;;;;;;3.00;2.00;;;;;19.88;46.09;99508.22;5004376;28;51165;-47
2021/10/30 05:29:50;;;;;;;;;5.00;3.00;;;;;19.88;46.14;99508.22;4997512;28;51932;-46
2021/10/30 05:32:15;;;;;;;;;3.00;3.00;;;;;19.88;46.38;99510.13;4997859;28;50948;-47
2021/10/30 05:34:41;;;;;;;;;2.50;2.00;;;;;19.88;46.34;99507.41;4997619;28;51233;-45
2021/10/30 05:37:07;;;;;;;;;4.75;4.75;;;;;19.87;46.56;99509.31;4997806;28;50925;-44
2021/10/30 05:39:32;;;;;;;;;3.00;3.00;;;;;19.87;46.23;99509.31;4997164;28;51968;-47
2021/10/30 05:41:57;;;;;;;;;3.00;2.00;;;;;19.88;46.14;99508.22;4997798;28;51059;-48
2021/10/30 05:44:23;;;;;;;;;3.75;3.25;;;;;19.88;46.49;99504.66;4997804;28;51529;-47
2021/10/30 05:46:48;;;;;;;;;1.00;1.00;;;;;19.87;46.42;99505.72;4998038;28;50943;-47
2021/10/30 05:49:15;;;;;;;;;4.00;2.00;;;;;19.87;46.50;99500.22;4997181;28;51353;-45
2021/10/30 05:51:41;;;;;;;;;3.00;3.00;;;;;19.87;45.93;99509.31;4997025;28;51212;-49
2021/10/30 05:54:06;;;;;;;;;3.00;2.00;;;;;19.87;46.47;99509.31;4997200;28;51031;-48
2021/10/30 05:56:32;;;;;;;;;3.00;3.00;;;;;19.88;46.77;99504.66;4997850;28;51630;-49
2021/10/30 05:58:58;;;;;;;;;4.50;2.50;;;;;19.87;46.45;99494.75;4997648;28;52983;-48
2021/10/30 06:01:23;;;;;;;;;2.00;2.00;;;;;19.89;46.34;99506.31;4997306;28;51194;-44
2021/10/30 06:03:49;;;;;;;;;3.00;3.00;;;;;19.88;46.53;99497.22;4997164;28;51134;-48
2021/10/30 06:06:15;;;;;;;;;2.00;2.00;;;;;19.88;46.71;99499.97;4997292;28;51325;-49
2021/10/30 06:08:40;;;;;;;;;2.00;2.00;;;;;19.88;46.62;99494.47;4996801;28;51952;-51
2021/10/30 06:11:06;;;;;;;;;2.00;2.00;;;;;19.88;46.45;99508.22;4997069;28;51136;-46
2021/10/30 06:13:31;;;;;;;;;4.25;3.25;;;;;19.87;46.63;99500.22;4996249;28;51062;-45
2021/10/30 06:15:57;;;;;;;;;3.00;3.00;;;;;19.86;46.18;99504.91;4997555;28;51306;-44
2021/10/30 06:18:22;;;;;;;;;4.25;3.75;;;;;19.87;46.23;99494.75;4996811;28;50926;-43
2021/10/30 06:20:48;;;;;;;;;5.50;3.50;;;;;19.87;46.22;99492.81;4996750;28;50873;-44
2021/10/30 06:23:15;;;;;;;;;3.00;2.25;;;;;19.87;46.33;99492.00;4997275;28;51158;-46
2021/10/30 06:25:42;;;;;;;;;2.00;2.00;;;;;19.88;46.21;99490.91;4997386;28;51056;-46
2021/10/30 06:28:08;;;;;;;;;1.75;1.75;;;;;19.88;46.51;99494.47;4997502;28;53690;-49
2021/10/30 06:30:34;;;;;;;;;1.00;1.00;;;;;19.88;46.34;99493.66;5016936;28;50986;-44
2021/10/30 06:32:59;;;;;;;;;2.25;2.25;;;;;19.87;46.08;99494.75;5016575;28;51222;-45
2021/10/30 06:35:24;;;;;;;;;2.25;2.25;;;;;19.88;46.21;99504.66;4982590;28;51197;-47
2021/10/30 06:37:50;;;;;;;;;3.00;1.75;;;;;19.87;46.36;99487.31;5016245;28;51720;-48
2021/10/30 06:40:15;;;;;;;;;2.00;2.00;;;;;19.87;46.56;99502.97;5016459;28;51136;-49
2021/10/30 06:42:42;;;;;;;;;2.50;2.50;;;;;19.87;46.28;99490.06;5016694;28;51059;-44
2021/10/30 06:45:08;;;;;;;;;1.75;1.75;;;;;19.88;46.67;99490.91;5016349;28;51118;-48
2021/10/30 06:47:34;;;;;;;;;2.75;2.50;;;;;19.87;46.68;99492.00;5016400;28;51733;-49
2021/10/30 06:50:00;;;;;;;;;2.00;2.00;;;;;19.87;46.55;99495.56;5016281;28;51322;-50
2021/10/30 06:52:37;;;;;;;;;2.50;2.50;;;;;19.87;46.61;99500.22;5016003;28;51153;-47
2021/10/30 06:55:08;;;;;;;;;3.00;3.00;;;;;19.87;46.41;99483.75;5016236;28;51014;-49
2021/10/30 06:57:33;;;;;;;;;2.50;2.50;;;;;19.88;46.40;99496.41;5015938;28;50947;-49
2021/10/30 07:00:00;;;;;;;;;2.25;2.00;;;;;19.87;46.57;99492.81;5016121;28;51138;-48
2021/10/30 07:02:25;;;;;;;;;3.25;2.00;;;;;19.88;46.45;99488.16;5016106;28;51090;-49
2021/10/30 07:04:51;;;;;;;;;1.75;1.75;;;;;19.87;46.68;99492.00;5016273;28;51069;-49
2021/10/30 07:07:16;;;;;;;;;2.50;2.50;;;;;19.87;46.38;99481.84;5015526;28;50994;-45
2021/10/30 07:09:41;;;;;;;;;2.25;1.75;;;;;19.87;46.67;99483.75;5016099;28;51182;-47
2021/10/30 07:12:07;;;;;;;;;2.00;2.00;;;;;19.87;46.52;99481.84;5015739;28;51083;-47
2021/10/30 07:14:32;;;;;;;;;1.00;1.00;;;;;19.87;46.31;99470.84;5015915;28;51096;-46
2021/10/30 07:16:58;;;;;;;;;2.00;1.50;;;;;19.88;46.54;99485.41;4997945;28;52850;-47
2021/10/30 07:19:24;;;;;;;;;1.50;1.50;;;;;19.87;46.40;99486.50;5015573;28;51298;-46
2021/10/30 07:21:49;;;;;;;;;1.00;1.00;;;;;19.87;46.85;99476.34;5015845;28;51102;-46
2021/10/30 07:24:14;;;;;;;;;1.00;1.00;;;;;19.88;46.55;99483.50;5015942;28;50979;-44
2021/10/30 07:26:40;;;;;;;;;2.00;2.00;;;;;19.87;46.52;99481.00;5008536;28;51752;-47
2021/10/30 07:29:05;;;;;;;;;1.75;1.75;;;;;19.88;46.55;99485.41;4995832;28;50943;-48
2021/10/30 07:31:31;;;;;;;;;2.00;2.00;;;;;19.87;46.48;99476.34;4996177;28;51184;-52
2021/10/30 07:33:56;;;;;;;;;2.75;2.75;;;;;19.87;46.62;99481.00;4996192;28;50937;-47
2021/10/30 07:36:22;;;;;;;;;1.00;1.00;;;;;19.87;46.61;99478.25;4995399;28;51712;-45
2021/10/30 07:38:48;;;;;;;;;2.75;2.75;;;;;19.88;46.40;99480.75;4995921;28;51099;-45
2021/10/30 07:41:13;;;;;;;;;2.00;2.00;;;;;19.87;46.94;99470.84;4995796;28;51145;-49
2021/10/30 07:43:38;;;;;;;;;1.50;1.50;;;;;19.88;46.55;99488.16;4996020;28;50909;-47
2021/10/30 07:46:04;;;;;;;;;2.50;2.00;;;;;19.87;46.42;99486.50;4995589;28;51853;-44
2021/10/30 07:48:29;;;;;;;;;3.50;2.50;;;;;19.87;46.65;99490.06;4995571;28;51051;-50
2021/10/30 07:50:54;;;;;;;;;2.25;2.25;;;;;19.88;46.38;99501.91;4995522;28;51008;-50
2021/10/30 07:53:20;;;;;;;;;2.75;2.00;;;;;19.87;46.49;99506.56;4995871;28;51257;-47
2021/10/30 07:55:48;;;;;;;;;4.00;1.75;;;;;19.87;46.38;99506.56;4995492;28;51967;-47
2021/10/30 07:58:13;;;;;;;;;2.00;2.00;;;;;19.87;46.78;99511.22;4977756;28;51084;-48
2021/10/30 08:00:38;;;;;;;;;3.00;3.00;;;;;19.87;46.29;99509.31;4995592;28;51191;-50
2021/10/30 08:03:04;;;;;;;;;2.00;1.25;;;;;19.88;46.70;99521.13;4995619;28;51302;-46
2021/10/30 08:05:29;;;;;;;;;2.00;2.00;;;;;19.88;46.53;99518.38;4994951;28;51526;-48
2021/10/30 08:07:55;;;;;;;;;2.25;1.75;;;;;19.88;46.53;99526.63;4995459;28;51059;-44
2021/10/30 08:10:23;;;;;;;;;2.00;2.00;;;;;19.88;46.68;99526.63;4995567;28;50964;-46
2021/10/30 08:12:49;;;;;;;;;3.00;1.00;;;;;19.88;46.38;99526.63;4995651;28;51372;-45
2021/10/30 08:15:14;;;;;;;;;3.00;2.00;;;;;19.88;46.60;99534.88;4995116;28;50947;-46
2021/10/30 08:17:39;;;;;;;;;2.00;2.00;;;;;19.88;46.37;99532.13;4995164;28;51032;-45
2021/10/30 08:20:06;;;;;;;;;1.25;1.25;;;;;19.87;46.92;99528.53;4994992;28;51460;-50
2021/10/30 08:22:31;;;;;;;;;3.00;3.00;;;;;19.88;46.73;99532.97;4995058;28;50959;-51
2021/10/30 08:24:58;;;;;;;;;2.25;2.00;;;;;19.88;46.75;99532.13;4994833;28;52050;-48
2021/10/30 08:27:23;;;;;;;;;2.00;2.00;;;;;19.88;46.73;99538.44;5007506;28;51080;-47
2021/10/30 08:29:49;;;;;;;;;2.00;1.00;;;;;19.88;46.39;99537.63;5014435;28;51062;-49
2021/10/30 08:32:15;;;;;;;;;4.25;2.00;;;;;19.89;46.59;99536.53;5014958;28;51007;-45
2021/10/30 08:34:40;;;;;;;;;1.00;1.00;;;;;19.89;46.45;99528.28;5014318;28;51798;-49
2021/10/30 08:37:06;;;;;;;;;3.50;3.50;;;;;19.90;46.77;99538.19;5015681;28;51013;-48
2021/10/30 08:39:32;;;;;;;;;3.25;2.75;;;;;19.89;46.45;99542.88;5018344;28;50967;-48
2021/10/30 08:41:57;;;;;;;;;2.50;2.50;;;;;19.90;46.56;99538.19;5018426;28;50943;-50
2021/10/30 08:44:23;;;;;;;;;1.50;1.50;;;;;19.89;46.50;99536.53;5017708;28;51822;-50
2021/10/30 08:46:53;;;;;;;;;1.00;1.00;;;;;19.89;46.54;99539.28;5018035;28;51093;-49
2021/10/30 08:49:19;;;;;;;;;1.75;1.75;;;;;19.89;46.39;99540.13;5017877;28;51042;-49
2021/10/30 08:51:44;;;;;;;;;3.00;2.00;;;;;19.90;46.77;99538.19;5017585;28;51078;-47
2021/10/30 08:54:13;;;;;;;;;1.25;1.25;;;;;19.91;46.49;99539.91;5017809;28;51073;-49
2021/10/30 08:56:39;;;;;;;;;2.25;2.00;;;;;19.90;46.78;99540.94;5017968;28;51228;-49
2021/10/30 08:59:06;;;;;;;;;2.75;2.00;;;;;19.91;46.50;99542.66;5017920;28;51130;-51
2021/10/30 09:01:43;;;;;;;;;3.00;3.00;;;;;19.90;46.85;99540.94;5018069;28;51180;-49
2021/10/30 09:04:11;;;;;;;;;2.00;2.00;;;;;19.90;46.69;99540.94;5017415;28;51141;-53
2021/10/30 09:06:59;;;;;;;;;3.50;2.00;;;;;19.92;46.60;99544.31;5017427;28;51097;-49
2021/10/30 09:09:29;;;;;;;;;2.00;2.00;;;;;19.92;46.74;99541.56;5017814;28;51332;-48
2021/10/30 09:11:57;;;;;;;;;2.00;2.00;;;;;19.92;46.68;99538.81;5017907;28;51201;-50
2021/10/30 09:14:25;;;;;;;;;4.00;2.75;;;;;19.89;46.63;99540.13;5017223;28;51007;-49
2021/10/30 09:17:12;;;;;;;;;3.00;3.00;;;;;19.92;46.59;99540.72;5017559;28;51090;-48
2021/10/30 09:19:40;;;;;;;;;2.50;1.00;;;;;19.92;46.88;99540.72;4999272;28;51108;-48
2021/10/30 09:22:06;;;;;;;;;3.00;2.00;;;;;19.92;46.92;99540.72;5017183;28;51386;-50
2021/10/30 09:25:11;;;;;;;;;1.50;1.50;;;;;19.92;46.48;99546.22;5016934;28;50939;-52
2021/10/30 09:27:49;;;;;;;;;3.50;3.00;;;;;19.92;46.80;99547.06;4984037;28;51454;-46
2021/10/30 09:30:16;;;;;;;;;2.00;1.00;;;;;19.92;46.50;99541.56;4997566;28;51047;-50
2021/10/30 09:32:53;;;;;;;;;2.00;2.00;;;;;19.92;46.78;99547.06;4997370;28;51066;-45
2021/10/30 09:35:24;;;;;;;;;1.00;1.00;;;;;19.92;46.67;99552.56;4996980;28;52547;-49
2021/10/30 09:37:51;;;;;;;;;2.50;2.00;;;;;19.93;46.50;99556.13;4997051;28;51037;-50
2021/10/30 09:40:23;;;;;;;;;2.75;2.25;;;;;19.92;46.48;99555.28;4979282;28;51391;-50
2021/10/30 09:43:04;;;;;;;;;2.00;2.00;;;;;19.93;46.72;99556.97;4980122;28;51334;-49
2021/10/30 09:45:30;;;;;;;;;2.00;2.00;;;;;19.93;46.53;99553.38;4997076;28;52054;-49
2021/10/30 09:48:02;;;;;;;;;3.00;2.00;;;;;19.93;46.90;99545.97;4996636;28;50954;-46
2021/10/30 09:50:32;;;;;;;;;2.00;2.00;;;;;19.92;46.68;99544.31;4978731;28;51160;-49
2021/10/30 09:53:00;;;;;;;;;2.75;2.75;;;;;19.92;46.60;99548.97;4996840;28;51031;-50
2021/10/30 09:55:27;;;;;;;;;3.00;2.50;;;;;19.91;46.94;99548.13;4996183;28;52021;-48
2021/10/30 09:58:04;;;;;;;;;2.00;2.00;;;;;19.93;46.69;99554.22;4997044;28;51355;-53
2021/10/30 10:00:31;;;;;;;;;3.00;3.00;;;;;19.92;46.68;99558.03;4997219;28;51019;-49
2021/10/30 10:03:00;;;;;;;;;1.00;1.00;;;;;19.93;46.82;99550.63;4996387;28;50967;-49
2021/10/30 10:05:28;;;;;;;;;2.25;2.00;;;;;19.93;46.46;99551.47;4995956;28;51774;-47
2021/10/30 10:07:55;;;;;;;;;2.25;2.25;;;;;19.92;46.76;99552.56;4996559;28;51058;-51
2021/10/30 10:10:22;;;;;;;;;1.00;1.00;;;;;19.91;46.85;99550.88;4996813;28;51304;-48
2021/10/30 10:12:53;;;;;;;;;3.25;1.75;;;;;19.92;46.77;99552.56;4996947;28;51024;-49
2021/10/30 10:15:21;;;;;;;;;1.50;1.50;;;;;19.92;47.23;99563.53;4996046;28;52180;-45
2021/10/30 10:17:48;;;;;;;;;1.25;1.25;;;;;19.92;46.53;99558.03;4996159;28;51117;-49
2021/10/30 10:20:13;;;;;;;;;3.25;2.25;;;;;19.93;46.74;99567.13;4996591;28;51116;-48
2021/10/30 10:22:41;;;;;;;;;3.75;2.50;;;;;19.93;46.99;99567.13;4996246;28;51047;-50
2021/10/30 10:25:55;;;;;;;;;3.00;3.00;;;;;19.93;46.94;99570.69;4996311;28;52704;-46
2021/10/30 10:28:36;;;;;;;;;3.00;3.00;;;;;19.92;46.91;99574.53;4935166;28;51345;-50
2021/10/30 10:31:02;;;;;;;;;2.00;2.00;;;;;19.93;46.91;99575.38;5014982;28;51066;-49
2021/10/30 10:33:29;;;;;;;;;2.00;2.00;;;;;19.93;46.88;99576.19;5015831;28;51110;-47
2021/10/30 10:36:13;;;;;;;;;1.75;1.75;;;;;19.92;46.91;99577.28;4997314;28;52991;-47
2021/10/30 10:38:56;;;;;;;;;2.00;2.00;;;;;19.93;46.77;99569.88;5015495;28;51269;-47
2021/10/30 10:41:36;;;;;;;;;1.00;1.00;;;;;19.93;46.99;99576.19;5015604;28;51055;-50
2021/10/30 10:44:05;;;;;;;;;1.50;1.50;;;;;19.93;46.93;99575.38;5015950;28;51388;-49
2021/10/30 10:46:31;;;;;;;;;3.75;3.00;;;;;19.93;47.10;99572.63;4998078;28;51127;-47
2021/10/30 10:49:46;;;;;;;;;1.25;1.25;;;;;19.93;46.72;99572.63;5015116;28;51006;-49
2021/10/30 10:52:24;;;;;;;;;2.75;2.75;;;;;19.93;46.97;99576.19;4996380;28;51052;-47
2021/10/30 10:54:55;;;;;;;;;2.00;2.00;;;;;19.94;47.14;99575.13;5015146;28;50966;-47
2021/10/30 10:57:26;;;;;;;;;1.75;1.75;;;;;19.94;46.99;99571.53;4996806;28;53176;-45
2021/10/30 11:00:18;;;;;;;;;1.50;1.50;;;;;19.93;46.94;99572.63;5014587;28;51085;-45
2021/10/30 11:02:50;;;;;;;;;2.50;1.50;;;;;19.94;46.93;99569.63;5014256;28;51016;-47
2021/10/30 11:05:18;;;;;;;;;2.00;1.00;;;;;19.94;46.91;99572.38;5015359;28;50935;-46
2021/10/30 11:08:08;;;;;;;;;2.00;2.00;;;;;19.95;47.16;99565.78;5014663;28;52579;-48
2021/10/30 11:10:36;;;;;;;;;2.50;2.25;;;;;19.95;46.98;99563.03;5015026;28;51376;-47
2021/10/30 11:13:06;;;;;;;;;3.25;2.25;;;;;19.95;46.60;99565.78;5014786;28;51024;-50
2021/10/30 11:15:56;;;;;;;;;1.50;1.50;;;;;19.96;46.84;99569.38;5015169;28;51033;-50
2021/10/30 11:18:31;;;;;;;;;4.00;1.75;;;;;19.96;46.82;99569.38;5014179;28;51037;-48
2021/10/30 11:21:31;;;;;;;;;3.00;2.00;;;;;19.95;46.86;99565.78;5014366;28;51381;-49
2021/10/30 11:23:58;;;;;;;;;2.25;2.25;;;;;19.96;47.00;99561.13;5013724;28;51059;-46
2021/10/30 11:26:33;;;;;;;;;3.50;1.25;;;;;19.96;47.15;99563.88;5009544;28;51183;-46
2021/10/30 11:29:10;;;;;;;;;2.75;1.75;;;;;19.96;46.87;99559.19;4993814;28;51733;-47
2021/10/30 11:31:36;;;;;;;;;2.75;2.75;;;;;19.97;46.82;99562.78;4994110;28;51280;-44
2021/10/30 11:34:04;;;;;;;;;2.00;1.00;;;;;19.97;46.69;99560.03;4994179;28;51249;-49
2021/10/30 11:36:32;;;;;;;;;2.75;2.75;;;;;19.96;47.01;99559.19;4994580;28;51035;-49